createdAt,value
2022-10-11T05:15:10.130Z,4.50
2022-10-11T05:17:36.892Z,4.30
2022-10-11T05:20:04.019Z,4.07
2022-10-11T05:22:30.623Z,4.57
2022-10-11T05:24:57.188Z,4.70
2022-10-11T05:27:48.867Z,4.32
2022-10-11T05:30:15.548Z,4.57
2022-10-11T05:32:42.256Z,4.70
2022-10-11T05:35:09.203Z,4.60
2022-10-11T05:37:35.803Z,4.72
2022-10-11T05:50:24.567Z,4.65
2022-10-11T05:52:51.666Z,5.30
2022-10-11T05:55:18.271Z,4.85
2022-10-11T05:57:44.822Z,4.30
2022-10-11T06:00:11.829Z,4.68
2022-10-11T06:02:38.393Z,4.85
2022-10-11T06:05:05.200Z,4.70
2022-10-11T06:07:31.990Z,4.78
2022-10-11T06:09:58.646Z,4.47
2022-10-11T06:12:25.269Z,4.07
2022-10-11T06:14:51.845Z,4.47
2022-10-11T06:17:18.519Z,5.47
2022-10-11T06:19:45.203Z,4.40
2022-10-11T06:22:12.508Z,4.62
2022-10-11T06:24:39.252Z,4.05
2022-10-11T06:27:05.945Z,3.97
2022-10-11T06:29:32.603Z,4.60
2022-10-11T06:32:29.985Z,4.70
2022-10-11T06:34:56.642Z,4.47
2022-10-11T06:37:23.336Z,4.22
2022-10-11T06:39:50.425Z,4.22
2022-10-11T06:42:17.383Z,4.22
2022-10-11T06:44:43.966Z,3.72
2022-10-11T06:48:12.410Z,4.20
2022-10-11T06:50:59.889Z,3.78
2022-10-11T06:53:41.079Z,3.42
2022-10-11T06:56:13.065Z,3.70
2022-10-11T06:58:43.882Z,3.77
2022-10-11T07:01:13.041Z,4.15
2022-10-11T07:03:40.222Z,5.53
2022-10-11T07:06:20.586Z,4.20
2022-10-11T07:09:06.577Z,4.03
2022-10-11T07:11:34.067Z,4.70
2022-10-11T07:14:04.412Z,4.32
2022-10-11T07:16:31.186Z,4.15
2022-10-11T07:19:01.235Z,4.85
2022-10-11T07:21:32.614Z,4.45
2022-10-11T07:24:23.161Z,4.85
2022-10-11T07:26:59.896Z,4.82
2022-10-11T07:29:26.657Z,4.95
2022-10-11T07:31:53.337Z,5.70
2022-10-11T07:34:20.710Z,4.82
2022-10-11T07:36:47.305Z,4.80
2022-10-11T07:39:14.110Z,4.82
2022-10-11T07:41:45.694Z,5.05
2022-10-11T07:44:13.158Z,4.55
2022-10-11T07:46:39.690Z,5.15
2022-10-11T07:49:06.258Z,4.95
2022-10-11T07:51:33.387Z,4.78
2022-10-11T07:54:03.478Z,5.80
2022-10-11T07:56:46.971Z,5.65
2022-10-11T07:59:13.548Z,5.95
2022-10-11T08:01:40.230Z,6.00
2022-10-11T08:04:06.958Z,6.15
2022-10-11T08:06:33.704Z,5.57
2022-10-11T08:09:02.372Z,6.00
2022-10-11T08:12:15.872Z,5.93
2022-10-11T08:15:40.597Z,5.97
2022-10-11T08:18:07.396Z,5.68
2022-10-11T08:20:34.173Z,6.62
2022-10-11T08:23:00.806Z,7.22
2022-10-11T08:25:27.536Z,6.62
2022-10-11T08:27:54.212Z,7.20
2022-10-11T08:30:20.804Z,6.28
2022-10-11T08:32:47.336Z,6.43
2022-10-11T08:35:14.864Z,6.87
2022-10-11T08:37:41.462Z,6.28
2022-10-11T08:40:10.511Z,6.75
2022-10-11T08:42:47.017Z,6.85
2022-10-11T08:46:00.033Z,6.82
2022-10-11T08:48:48.667Z,6.65
2022-10-11T08:51:21.250Z,6.82
2022-10-11T08:54:07.170Z,6.80
2022-10-11T08:56:37.360Z,8.75
2022-10-11T08:59:12.903Z,8.23
2022-10-11T09:06:05.473Z,7.50
2022-10-11T09:09:02.366Z,7.60
2022-10-11T09:11:37.790Z,8.57
2022-10-11T09:14:22.721Z,8.65
2022-10-11T09:17:00.905Z,8.88
2022-10-11T09:19:45.202Z,8.63
2022-10-11T09:22:54.208Z,9.05
2022-10-11T09:25:33.326Z,8.95
2022-10-11T09:28:13.410Z,9.20
2022-10-11T09:30:46.941Z,7.32
2022-10-11T09:33:35.421Z,9.40
2022-10-11T09:36:52.263Z,9.02
2022-10-11T09:39:57.061Z,10.43
2022-10-11T09:42:23.750Z,8.65
2022-10-11T09:44:51.710Z,9.95
2022-10-11T09:47:27.235Z,12.10
2022-10-11T09:50:05.340Z,10.05
2022-10-11T09:52:32.567Z,11.00
2022-10-11T09:55:19.678Z,10.85
2022-10-11T09:57:55.091Z,9.27
2022-10-11T10:00:24.386Z,9.07
2022-10-11T10:02:54.381Z,10.40
2022-10-11T10:05:26.946Z,10.13
2022-10-11T10:22:05.516Z,8.40
2022-10-11T10:24:41.311Z,8.65
2022-10-11T10:27:36.078Z,9.75
2022-10-11T10:30:35.378Z,8.77
2022-10-11T10:33:09.166Z,9.85
2022-10-11T10:35:48.486Z,10.02
2022-10-11T10:38:28.886Z,9.18
2022-10-11T10:41:01.871Z,9.73
2022-10-11T10:43:33.481Z,8.75
2022-10-11T10:50:18.429Z,9.48
2022-10-11T10:53:12.666Z,9.30
2022-10-11T10:55:43.161Z,8.32
2022-10-11T10:58:27.817Z,9.00
2022-10-11T11:01:02.380Z,9.23
2022-10-11T11:04:06.948Z,8.23
2022-10-11T11:06:54.056Z,8.30
2022-10-11T11:09:52.136Z,8.93
2022-10-11T11:12:24.822Z,9.05
2022-10-11T11:18:06.002Z,8.93
2022-10-11T11:24:35.278Z,8.48
2022-10-11T11:27:26.550Z,10.18
2022-10-11T11:30:03.048Z,8.90
2022-10-11T11:33:24.425Z,8.38
2022-10-11T11:35:55.803Z,9.48
2022-10-11T11:39:15.602Z,9.18
2022-10-11T11:42:07.476Z,8.18
2022-10-11T11:44:44.380Z,9.38
2022-10-11T11:47:42.023Z,9.70
2022-10-11T11:50:34.443Z,7.78
2022-10-11T12:00:14.126Z,8.82
2022-10-11T12:03:11.361Z,8.20
2022-10-11T12:05:38.032Z,9.20
2022-10-11T12:08:11.129Z,9.20
2022-10-11T12:10:53.674Z,9.38
2022-10-11T12:13:48.511Z,8.90
2022-10-11T12:37:24.422Z,9.02
2022-10-11T12:39:57.983Z,9.15
2022-10-11T12:42:36.551Z,8.48
2022-10-11T12:45:14.934Z,8.95
2022-10-11T12:48:04.173Z,8.82
2022-10-11T12:50:49.470Z,9.00
2022-10-11T12:53:33.602Z,8.68
2022-10-11T12:56:07.606Z,7.68
2022-10-11T12:58:43.928Z,7.95
2022-10-11T13:01:19.525Z,8.05
2022-10-11T13:07:44.013Z,7.95
2022-10-11T13:10:16.063Z,8.50
2022-10-11T13:12:49.545Z,9.90
2022-10-11T13:15:20.898Z,8.45
2022-10-11T13:17:48.829Z,8.50
2022-10-11T13:20:58.232Z,8.43
2022-10-11T13:23:24.868Z,9.07
2022-10-11T13:28:36.809Z,9.95
2022-10-11T14:34:32.175Z,10.55
2022-10-11T14:36:59.032Z,8.82
2022-10-11T14:39:28.006Z,8.90
2022-10-11T14:44:30.896Z,8.82
2022-10-11T14:46:57.515Z,8.95
2022-10-11T14:54:48.537Z,8.35
2022-10-11T14:57:15.186Z,8.82
2022-10-11T14:59:41.997Z,8.50
2022-10-11T15:02:11.211Z,9.63
2022-10-11T15:04:37.919Z,8.07
2022-10-11T15:07:05.833Z,8.02
2022-10-11T15:09:32.659Z,8.18
2022-10-11T15:11:59.590Z,8.90
2022-10-11T15:14:26.452Z,8.23
2022-10-11T15:16:53.622Z,8.23
2022-10-11T15:19:23.039Z,8.13
2022-10-11T15:21:54.291Z,9.63
2022-10-11T15:24:21.432Z,8.93
2022-10-11T15:26:48.524Z,9.63
2022-10-11T15:29:17.763Z,8.77
2022-10-11T15:31:47.598Z,8.07
2022-10-11T15:37:05.163Z,8.05
2022-10-11T15:39:43.919Z,8.68
2022-10-11T15:50:50.631Z,9.03
2022-10-11T15:53:18.954Z,8.63
2022-10-11T15:56:17.778Z,8.68
2022-10-11T15:58:50.910Z,9.30
2022-10-11T16:01:23.207Z,8.68
2022-10-11T16:03:55.493Z,9.00
2022-10-11T16:06:22.553Z,9.35
2022-10-11T16:08:59.659Z,9.95
2022-10-11T16:11:26.803Z,8.82
2022-10-11T16:13:54.314Z,9.25
2022-10-11T16:22:03.426Z,9.10
2022-10-11T16:29:47.025Z,10.30
2022-10-11T16:32:13.668Z,11.77
2022-10-11T16:34:41.534Z,12.25
2022-10-11T16:37:08.509Z,13.05
2022-10-11T16:39:36.374Z,12.88
2022-10-11T16:42:03.308Z,12.13
2022-10-11T16:44:30.004Z,12.05
2022-10-11T16:46:56.778Z,11.35
2022-10-11T16:49:27.528Z,13.15
2022-10-11T16:51:57.026Z,14.00
2022-10-11T16:54:28.292Z,20.25
2022-10-11T16:56:56.593Z,26.02
2022-10-11T16:59:25.782Z,27.73
2022-10-11T17:09:46.056Z,19.15
2022-10-11T17:12:14.375Z,21.27
2022-10-11T17:14:41.456Z,18.98
2022-10-11T17:17:09.745Z,18.17
2022-10-11T17:19:42.620Z,16.50
2022-10-11T17:22:13.158Z,16.52
2022-10-11T17:24:40.041Z,15.93
2022-10-11T17:27:07.664Z,14.00
2022-10-11T17:29:34.665Z,15.45
2022-10-11T17:32:01.671Z,15.55
2022-10-11T17:34:33.857Z,15.20
2022-10-11T17:37:00.624Z,15.50
2022-10-11T17:39:27.251Z,15.85
2022-10-11T17:41:53.944Z,15.73
2022-10-11T17:54:56.836Z,43.92
2022-10-11T17:57:26.250Z,26.67
2022-10-11T17:59:53.002Z,17.02
2022-10-11T18:02:20.207Z,16.02
2022-10-11T18:04:54.402Z,16.48
2022-10-11T18:07:29.902Z,14.63
2022-10-11T19:18:18.199Z,22.67
2022-10-11T19:21:12.031Z,22.30
2022-10-11T19:23:43.597Z,19.98
2022-10-11T19:26:23.687Z,20.57
2022-10-11T19:29:05.665Z,19.77
2022-10-11T19:31:34.487Z,19.30
2022-10-11T19:34:06.995Z,18.73
2022-10-11T19:36:41.076Z,20.00
2022-10-11T19:41:58.627Z,19.95
2022-10-11T19:44:25.326Z,19.73
2022-10-11T19:46:55.770Z,19.58
2022-10-11T19:49:26.854Z,19.10
2022-10-11T19:51:55.368Z,19.05
2022-10-11T19:54:22.350Z,19.45
2022-10-11T19:56:49.156Z,19.15
2022-10-11T19:59:16.297Z,17.60
2022-10-11T20:01:52.747Z,18.35
2022-10-11T20:40:00.310Z,22.17
2022-10-11T20:42:29.923Z,21.80
2022-10-11T20:45:08.174Z,23.50
2022-10-11T21:16:17.170Z,17.48
2022-10-11T21:39:36.881Z,16.85
2022-10-11T21:42:03.752Z,15.93
2022-10-11T21:44:32.550Z,16.33
2022-10-11T21:51:25.734Z,16.12
2022-10-11T21:54:00.396Z,15.73
2022-10-11T21:56:28.620Z,17.25
2022-10-11T21:58:55.568Z,16.85
2022-10-11T22:01:22.312Z,16.30
2022-10-11T22:03:49.082Z,15.43
2022-10-11T22:06:16.037Z,15.73
2022-10-11T22:08:45.827Z,14.80
2022-10-11T23:04:55.976Z,13.05
2022-10-11T23:07:22.572Z,12.13
2022-10-11T23:14:13.549Z,13.38
2022-10-11T23:16:46.267Z,13.68
2022-10-11T23:19:17.383Z,12.68
2022-10-11T23:21:49.497Z,12.75
2022-10-11T23:24:16.294Z,11.82
2022-10-11T23:26:45.947Z,12.63
2022-10-11T23:29:51.285Z,12.57
2022-10-11T23:32:28.281Z,12.27
2022-10-11T23:35:04.065Z,12.05
2022-10-11T23:37:36.937Z,12.20
2022-10-11T23:40:05.450Z,12.82
